• Join FlightAware (Why Join?)
  • Login
  • US Flag 
10:35PM EDT


 

Airport Tracker/Info


-or-


 

Live Flight TrackerFlight Track Log ✈ N830QS ✈ 18-Aug-2013 ✈ KSMO - KSJC

Flight Track Log - Related Links

Times and Time Zones

All times are in EDT time to prevent confusion due to time zone crossing. See the N830QS flight status page for this flight to view local times or setup timezone preferences in your user account.

Time Position Orientation Groundspeed Altitude Reporting Facility
EDT Latitude Longitude Course Direction KTS MPH feet Rate Location/Type
03:38PM 33.9972 -118.5003 256° West 184 212 1,600  Level Los Angeles Center
03:39PM 33.9844 -118.5636 256° West 195 224 3,000 1,140 Climbing Los Angeles Center
03:40PM 33.9636 -118.6350 251° West 211 243 4,000 1,380 Climbing Los Angeles Center
03:41PM 33.9444 -118.7081 252° West 228 262 5,900 1,620 Climbing Los Angeles Center
03:42PM 33.9425 -118.7906 268° West 248 285 7,400 1,620 Climbing Los Angeles Center
03:43PM 33.9375 -118.8900 267° West 292 336 9,300 1,920 Climbing Los Angeles Center
03:44PM 33.9681 -118.9831 292° West 320 368 11,500 2,160 Climbing Los Angeles Center
03:45PM 34.0378 -119.0833 310° West 324 373 13,900 1,980 Climbing Los Angeles Center
03:46PM 34.0981 -119.1714 310° West 341 392 15,700 960 Climbing Los Angeles Center
03:47PM 34.1614 -119.2633 310° West 356 410 16,000 120 Climbing Los Angeles Center
03:49PM 34.2236 -119.3553 309° West 356 410 16,000  Level Los Angeles Center
03:50PM 34.2881 -119.4486 310° West 359 413 16,000  Level Los Angeles Center
03:51PM 34.3522 -119.5403 310° West 357 411 16,000  Level Los Angeles Center
03:52PM 34.4239 -119.6483 309° West 360 414 16,000  Level Los Angeles Center
03:53PM 34.4950 -119.7536 309° West 378 435 16,000  Level Los Angeles Center
03:54PM 34.5836 -119.8336 323° Northwest 395 455 16,000  Level Los Angeles Center
03:55PM 34.6717 -119.9036 327° Northwest 402 463 16,000  Level Los Angeles Center
03:56PM 34.7839 -119.9964 326° Northwest 405 466 16,000  Level Los Angeles Center
03:57PM 34.8769 -120.0756 325° Northwest 406 467 16,000  Level Los Angeles Center
03:58PM 34.9728 -120.1533 326° Northwest 409 471 16,000  Level Los Angeles Center
03:59PM 35.0647 -120.2317 325° Northwest 408 470 16,000  Level Los Angeles Center
04:00PM 35.1583 -120.3092 326° Northwest 408 470 16,000  Level Los Angeles Center
04:01PM 35.2500 -120.3867 325° Northwest 405 466 16,000 -60 Level Los Angeles Center
04:02PM 35.3611 -120.4806 325° Northwest 408 470 15,900 -60 Descending Los Angeles Center
04:03PM 35.4533 -120.5600 325° Northwest 407 468 15,900  Level Los Angeles Center
04:04PM 35.5444 -120.6361 326° Northwest 402 463 15,900  Level Los Angeles Center
04:05PM 35.6439 -120.7208 325° Northwest 397 457 15,900  Level Los Angeles Center
04:06PM 35.6803 -120.7514 326° Northwest 396 456 15,900  Level Oakland Center
04:07PM 35.7714 -120.8286 325° Northwest 397 457 15,900  Level Oakland Center
04:08PM 35.8808 -120.9214 326° Northwest 397 457 15,900  Level Oakland Center
04:09PM 35.9711 -120.9997 325° Northwest 397 457 15,900  Level Oakland Center
04:11PM 36.1525 -121.1539 326° Northwest 395 455 15,900  Level Oakland Center
04:12PM 36.2431 -121.2322 325° Northwest 394 453 15,900  Level Oakland Center
04:13PM 36.3319 -121.3106 325° Northwest 392 451 15,900  Level Oakland Center
04:14PM 36.4147 -121.3844 324° Northwest 368 423 15,900  Level Oakland Center
04:15PM 36.5097 -121.4664 325° Northwest 348 400 15,900  Level Oakland Center
04:16PM 36.5889 -121.5339 326° Northwest 346 398 15,900 -420 Level Oakland Center
04:17PM 36.6664 -121.6008 325° Northwest 341 392 15,100 -1,260 Descending Oakland Center
04:18PM 36.7594 -121.5953 North 330 380 13,400 -1,560 Descending Oakland Center
04:19PM 36.8542 -121.5853 North 334 384 12,000 -1,560 Descending Oakland Center
04:20PM 36.9411 -121.5786 North 320 368 10,200 -1,800 Descending Oakland Center
04:21PM 37.0261 -121.5728 North 313 360 8,400 -1,680 Descending Oakland Center
04:22PM 37.1028 -121.5992 345° North 300 345 6,800 -1,740 Descending Oakland Center
04:23PM 37.1550 -121.6989 303° West 291 335 4,900 -1,200 Descending Oakland Center
04:24PM 37.2003 -121.7569 314° West 255 293 4,400 -1,020 Descending Oakland Center
04:25PM 37.2458 -121.8056 320° Northwest 227 261 2,900 -1,080 Descending Oakland Center
04:26PM 37.2869 -121.8478 321° Northwest 209 241 2,200 -840 Descending Oakland Center
04:27PM 37.3261 -121.8908 319° Northwest 196 226 1,200 -1,020 Descending Oakland Center
04:28PM 37.3539 -121.9217 319° Northwest 159 183 200 -1,020 Descending Oakland Center